sensor_id;sensor_type;location;lat;lon;timestamp;pressure;altitude;pressure_sealevel;temperature;humidity
22649;BME280;11491;41.942;24.220;2022-11-20T00:00:19;89500.59;;;14.62;71.17
22649;BME280;11491;41.942;24.220;2022-11-20T00:02:46;89485.59;;;14.54;71.33
22649;BME280;11491;41.942;24.220;2022-11-20T00:05:13;89499.81;;;14.58;70.66
22649;BME280;11491;41.942;24.220;2022-11-20T00:07:40;89503.31;;;14.65;70.48
22649;BME280;11491;41.942;24.220;2022-11-20T00:10:07;89492.91;;;14.57;70.73
22649;BME280;11491;41.942;24.220;2022-11-20T00:12:35;89495.22;;;14.58;70.96
22649;BME280;11491;41.942;24.220;2022-11-20T00:15:06;89504.44;;;14.57;71.06
22649;BME280;11491;41.942;24.220;2022-11-20T00:17:33;89512.09;;;14.55;70.77
22649;BME280;11491;41.942;24.220;2022-11-20T00:19:59;89516.75;;;14.58;70.79
22649;BME280;11491;41.942;24.220;2022-11-20T00:22:26;89520.56;;;14.54;71.34
22649;BME280;11491;41.942;24.220;2022-11-20T00:24:53;89513.59;;;14.53;71.74
22649;BME280;11491;41.942;24.220;2022-11-20T00:27:19;89527.03;;;14.53;71.57
22649;BME280;11491;41.942;24.220;2022-11-20T00:29:47;89524.41;;;14.56;71.42
22649;BME280;11491;41.942;24.220;2022-11-20T00:32:14;89520.13;;;14.52;71.58
22649;BME280;11491;41.942;24.220;2022-11-20T00:34:41;89510.50;;;14.51;71.62
22649;BME280;11491;41.942;24.220;2022-11-20T00:37:08;89505.94;;;14.55;71.39
22649;BME280;11491;41.942;24.220;2022-11-20T00:39:34;89513.25;;;14.58;71.33
22649;BME280;11491;41.942;24.220;2022-11-20T00:42:01;89512.88;;;14.56;71.73
22649;BME280;11491;41.942;24.220;2022-11-20T00:44:28;89519.03;;;14.60;71.48
22649;BME280;11491;41.942;24.220;2022-11-20T00:46:56;89517.44;;;14.52;72.24
22649;BME280;11491;41.942;24.220;2022-11-20T00:49:23;89517.41;;;14.44;72.78
22649;BME280;11491;41.942;24.220;2022-11-20T00:51:49;89515.88;;;14.43;73.09
22649;BME280;11491;41.942;24.220;2022-11-20T00:54:16;89511.22;;;14.40;73.09
22649;BME280;11491;41.942;24.220;2022-11-20T00:56:43;89502.03;;;14.41;73.08
22649;BME280;11491;41.942;24.220;2022-11-20T00:59:09;89500.41;;;14.33;72.32
22649;BME280;11491;41.942;24.220;2022-11-20T01:01:37;89504.34;;;14.47;71.86
22649;BME280;11491;41.942;24.220;2022-11-20T01:04:05;89510.09;;;14.45;72.01
22649;BME280;11491;41.942;24.220;2022-11-20T01:06:34;89491.25;;;14.41;72.12
22649;BME280;11491;41.942;24.220;2022-11-20T01:09:02;89486.66;;;14.38;72.02
22649;BME280;11491;41.942;24.220;2022-11-20T01:11:32;89482.03;;;14.42;71.83
22649;BME280;11491;41.942;24.220;2022-11-20T01:13:59;89469.31;;;14.32;71.53
22649;BME280;11491;41.942;24.220;2022-11-20T01:16:29;89468.94;;;14.37;71.86
22649;BME280;11491;41.942;24.220;2022-11-20T01:18:57;89466.22;;;14.30;72.16
22649;BME280;11491;41.942;24.220;2022-11-20T01:21:28;89465.81;;;14.28;72.08
22649;BME280;11491;41.942;24.220;2022-11-20T01:23:55;89481.19;;;14.24;72.28
22649;BME280;11491;41.942;24.220;2022-11-20T01:26:23;89471.94;;;14.25;71.90
22649;BME280;11491;41.942;24.220;2022-11-20T01:28:51;89488.84;;;14.22;71.94
22649;BME280;11491;41.942;24.220;2022-11-20T01:31:19;89481.13;;;14.20;71.64
22649;BME280;11491;41.942;24.220;2022-11-20T01:33:48;89468.88;;;14.23;71.29
22649;BME280;11491;41.942;24.220;2022-11-20T01:36:16;89469.63;;;14.20;71.32
22649;BME280;11491;41.942;24.220;2022-11-20T01:38:45;89466.19;;;14.23;71.46
22649;BME280;11491;41.942;24.220;2022-11-20T01:41:13;89464.97;;;14.13;71.56
22649;BME280;11491;41.942;24.220;2022-11-20T01:44:02;89453.50;;;14.20;71.35
22649;BME280;11491;41.942;24.220;2022-11-20T01:46:28;89456.97;;;14.24;71.20
22649;BME280;11491;41.942;24.220;2022-11-20T01:48:58;89448.88;;;14.20;71.39
22649;BME280;11491;41.942;24.220;2022-11-20T01:51:29;89423.53;;;14.18;71.53
22649;BME280;11491;41.942;24.220;2022-11-20T01:54:02;89418.91;;;14.15;71.25
22649;BME280;11491;41.942;24.220;2022-11-20T01:56:33;89425.03;;;14.15;71.31
22649;BME280;11491;41.942;24.220;2022-11-20T01:59:04;89404.34;;;14.23;70.48
22649;BME280;11491;41.942;24.220;2022-11-20T02:01:32;89409.72;;;14.23;70.13
22649;BME280;11491;41.942;24.220;2022-11-20T02:03:59;89408.19;;;14.26;70.39
22649;BME280;11491;41.942;24.220;2022-11-20T02:06:29;89392.84;;;14.26;70.21
22649;BME280;11491;41.942;24.220;2022-11-20T02:08:58;89395.91;;;14.21;70.91
22649;BME280;11491;41.942;24.220;2022-11-20T02:11:25;89395.09;;;14.13;71.26
22649;BME280;11491;41.942;24.220;2022-11-20T02:13:53;89414.25;;;14.05;72.06
22649;BME280;11491;41.942;24.220;2022-11-20T02:16:21;89409.63;;;14.02;72.00
22649;BME280;11491;41.942;24.220;2022-11-20T02:18:50;89392.31;;;13.95;72.77
22649;BME280;11491;41.942;24.220;2022-11-20T02:21:24;89411.88;;;13.96;72.80
22649;BME280;11491;41.942;24.220;2022-11-20T02:24:03;89408.78;;;13.90;73.10
22649;BME280;11491;41.942;24.220;2022-11-20T02:26:33;89416.84;;;13.90;73.18
22649;BME280;11491;41.942;24.220;2022-11-20T02:29:02;89412.63;;;13.89;73.09
22649;BME280;11491;41.942;24.220;2022-11-20T02:31:33;89418.38;;;13.88;73.06
22649;BME280;11491;41.942;24.220;2022-11-20T02:34:00;89417.94;;;13.82;73.16
22649;BME280;11491;41.942;24.220;2022-11-20T02:36:27;89418.72;;;13.86;73.03
22649;BME280;11491;41.942;24.220;2022-11-20T02:38:55;89415.28;;;13.86;73.44
22649;BME280;11491;41.942;24.220;2022-11-20T02:41:30;89404.91;;;13.84;73.58
22649;BME280;11491;41.942;24.220;2022-11-20T02:43:57;89407.97;;;13.79;73.88
22649;BME280;11491;41.942;24.220;2022-11-20T02:46:24;89413.69;;;13.77;74.24
22649;BME280;11491;41.942;24.220;2022-11-20T02:48:50;89409.09;;;13.78;74.22
22649;BME280;11491;41.942;24.220;2022-11-20T02:51:17;89417.16;;;13.78;74.24
22649;BME280;11491;41.942;24.220;2022-11-20T02:53:44;89415.22;;;13.75;74.56
22649;BME280;11491;41.942;24.220;2022-11-20T02:56:11;89430.13;;;13.69;74.77
22649;BME280;11491;41.942;24.220;2022-11-20T02:58:39;89445.53;;;13.72;74.63
22649;BME280;11491;41.942;24.220;2022-11-20T03:01:05;89432.44;;;13.67;74.66
22649;BME280;11491;41.942;24.220;2022-11-20T03:03:32;89443.97;;;13.71;74.44
22649;BME280;11491;41.942;24.220;2022-11-20T03:05:59;89423.63;;;13.73;74.25
22649;BME280;11491;41.942;24.220;2022-11-20T03:08:26;89431.69;;;13.70;73.91
22649;BME280;11491;41.942;24.220;2022-11-20T03:10:53;89437.09;;;13.77;73.76
22649;BME280;11491;41.942;24.220;2022-11-20T03:13:20;89434.81;;;13.79;73.81
22649;BME280;11491;41.942;24.220;2022-11-20T03:15:48;89454.34;;;13.76;73.56
22649;BME280;11491;41.942;24.220;2022-11-20T03:18:15;89449.38;;;13.78;73.22
22649;BME280;11491;41.942;24.220;2022-11-20T03:20:42;89434.81;;;13.79;73.14
22649;BME280;11491;41.942;24.220;2022-11-20T03:23:08;89436.75;;;13.82;73.26
22649;BME280;11491;41.942;24.220;2022-11-20T03:25:36;89445.28;;;13.91;72.97
22649;BME280;11491;41.942;24.220;2022-11-20T03:28:03;89451.03;;;13.93;72.69
22649;BME280;11491;41.942;24.220;2022-11-20T03:30:30;89450.25;;;13.89;72.75
22649;BME280;11491;41.942;24.220;2022-11-20T03:32:58;89455.56;;;13.82;73.04
22649;BME280;11491;41.942;24.220;2022-11-20T03:35:25;89450.97;;;13.86;73.08
22649;BME280;11491;41.942;24.220;2022-11-20T03:37:52;89453.97;;;13.74;72.86
22649;BME280;11491;41.942;24.220;2022-11-20T03:40:18;89455.09;;;13.73;73.33
22649;BME280;11491;41.942;24.220;2022-11-20T03:42:45;89461.63;;;13.72;73.32
22649;BME280;11491;41.942;24.220;2022-11-20T03:45:12;89470.81;;;13.71;73.14
22649;BME280;11491;41.942;24.220;2022-11-20T03:47:39;89470.47;;;13.76;72.86
22649;BME280;11491;41.942;24.220;2022-11-20T03:50:09;89481.56;;;13.71;73.42
22649;BME280;11491;41.942;24.220;2022-11-20T03:52:37;89484.25;;;13.71;73.27
22649;BME280;11491;41.942;24.220;2022-11-20T03:55:04;89477.41;;;13.77;72.95
22649;BME280;11491;41.942;24.220;2022-11-20T03:57:31;89487.75;;;13.78;72.80
22649;BME280;11491;41.942;24.220;2022-11-20T03:59:58;89479.34;;;13.80;72.83
22649;BME280;11491;41.942;24.220;2022-11-20T04:02:25;89486.22;;;13.77;72.65
22649;BME280;11491;41.942;24.220;2022-11-20T04:04:51;89473.97;;;13.80;72.57
22649;BME280;11491;41.942;24.220;2022-11-20T04:07:19;89472.44;;;13.79;72.78
22649;BME280;11491;41.942;24.220;2022-11-20T04:09:46;89485.47;;;13.81;72.59
22649;BME280;11491;41.942;24.220;2022-11-20T04:12:13;89479.75;;;13.82;72.11
22649;BME280;11491;41.942;24.220;2022-11-20T04:14:40;89485.53;;;13.84;72.01
22649;BME280;11491;41.942;24.220;2022-11-20T04:17:07;89486.31;;;13.88;71.74
22649;BME280;11491;41.942;24.220;2022-11-20T04:19:33;89488.25;;;13.91;71.89
22649;BME280;11491;41.942;24.220;2022-11-20T04:22:00;89487.09;;;13.92;71.78
22649;BME280;11491;41.942;24.220;2022-11-20T04:24:28;89500.13;;;13.90;72.15
22649;BME280;11491;41.942;24.220;2022-11-20T04:26:55;89495.16;;;13.92;71.31
22649;BME280;11491;41.942;24.220;2022-11-20T04:29:22;89482.91;;;13.98;71.24
22649;BME280;11491;41.942;24.220;2022-11-20T04:31:48;89492.19;;;14.05;71.22
22649;BME280;11491;41.942;24.220;2022-11-20T04:34:15;89483.72;;;14.03;71.28
22649;BME280;11491;41.942;24.220;2022-11-20T04:36:42;89481.84;;;14.07;71.21
22649;BME280;11491;41.942;24.220;2022-11-20T04:39:12;89489.44;;;13.97;71.44
22649;BME280;11491;41.942;24.220;2022-11-20T04:41:40;89480.97;;;13.95;71.80
22649;BME280;11491;41.942;24.220;2022-11-20T04:44:07;89494.84;;;14.01;71.53
22649;BME280;11491;41.942;24.220;2022-11-20T04:46:35;89478.75;;;14.05;71.19
22649;BME280;11491;41.942;24.220;2022-11-20T04:49:03;89494.88;;;14.05;71.41
22649;BME280;11491;41.942;24.220;2022-11-20T04:51:30;89485.59;;;13.98;70.82
22649;BME280;11491;41.942;24.220;2022-11-20T04:53:57;89484.81;;;13.94;71.14
22649;BME280;11491;41.942;24.220;2022-11-20T04:56:23;89486.41;;;14.03;70.89
22649;BME280;11491;41.942;24.220;2022-11-20T04:58:52;89484.13;;;14.05;70.49
22649;BME280;11491;41.942;24.220;2022-11-20T05:01:20;89466.47;;;14.04;70.53
22649;BME280;11491;41.942;24.220;2022-11-20T05:03:47;89482.97;;;14.06;70.30
22649;BME280;11491;41.942;24.220;2022-11-20T05:06:18;89482.59;;;14.04;70.67
22649;BME280;11491;41.942;24.220;2022-11-20T05:08:48;89466.47;;;14.04;70.59
22649;BME280;11491;41.942;24.220;2022-11-20T05:11:16;89484.22;;;14.19;70.42
22649;BME280;11491;41.942;24.220;2022-11-20T05:13:44;89487.22;;;14.10;70.00
22649;BME280;11491;41.942;24.220;2022-11-20T05:16:13;89505.63;;;14.05;70.19
22649;BME280;11491;41.942;24.220;2022-11-20T05:18:41;89488.28;;;13.98;69.90
22649;BME280;11491;41.942;24.220;2022-11-20T05:21:09;89493.66;;;13.98;70.53
22649;BME280;11491;41.942;24.220;2022-11-20T05:23:37;89490.97;;;13.95;70.97
22649;BME280;11491;41.942;24.220;2022-11-20T05:26:05;89485.63;;;14.02;70.71
22649;BME280;11491;41.942;24.220;2022-11-20T05:28:32;89477.59;;;14.06;70.31
22649;BME280;11491;41.942;24.220;2022-11-20T05:31:04;89490.97;;;13.98;70.78
22649;BME280;11491;41.942;24.220;2022-11-20T05:33:33;89487.88;;;13.89;70.27
22649;BME280;11491;41.942;24.220;2022-11-20T05:36:00;89500.25;;;14.05;70.33
22649;BME280;11491;41.942;24.220;2022-11-20T05:38:27;89491.06;;;14.09;70.10
22649;BME280;11491;41.942;24.220;2022-11-20T05:40:54;89482.63;;;14.11;70.16
22649;BME280;11491;41.942;24.220;2022-11-20T05:43:20;89484.09;;;14.01;70.45
22649;BME280;11491;41.942;24.220;2022-11-20T05:45:52;89489.16;;;14.10;70.41
22649;BME280;11491;41.942;24.220;2022-11-20T05:48:21;89481.88;;;14.14;70.55
22649;BME280;11491;41.942;24.220;2022-11-20T05:50:50;89481.13;;;14.17;70.53
22649;BME280;11491;41.942;24.220;2022-11-20T05:53:16;89477.25;;;14.11;70.68
22649;BME280;11491;41.942;24.220;2022-11-20T05:55:43;89478.75;;;14.08;70.76
22649;BME280;11491;41.942;24.220;2022-11-20T05:58:10;89482.66;;;14.18;70.73
22649;BME280;11491;41.942;24.220;2022-11-20T06:00:37;89481.94;;;14.21;70.46
22649;BME280;11491;41.942;24.220;2022-11-20T06:03:03;89485.00;;;14.19;70.80
22649;BME280;11491;41.942;24.220;2022-11-20T06:05:30;89480.31;;;14.13;70.37
22649;BME280;11491;41.942;24.220;2022-11-20T06:08:00;89466.47;;;14.11;70.45
22649;BME280;11491;41.942;24.220;2022-11-20T06:10:27;89500.41;;;14.33;70.07
22649;BME280;11491;41.942;24.220;2022-11-20T06:12:57;89469.63;;;14.20;70.40
22649;BME280;11491;41.942;24.220;2022-11-20T06:15:24;89503.47;;;14.28;69.46
22649;BME280;11491;41.942;24.220;2022-11-20T06:17:52;89482.75;;;14.29;69.82
22649;BME280;11491;41.942;24.220;2022-11-20T06:20:18;89488.94;;;14.36;68.76
22649;BME280;11491;41.942;24.220;2022-11-20T06:22:45;89489.69;;;14.37;69.47
22649;BME280;11491;41.942;24.220;2022-11-20T06:25:14;89495.13;;;14.48;69.40
22649;BME280;11491;41.942;24.220;2022-11-20T06:27:40;89496.75;;;14.63;68.52
22649;BME280;11491;41.942;24.220;2022-11-20T06:30:08;89466.69;;;14.47;68.24
22649;BME280;11491;41.942;24.220;2022-11-20T06:32:35;89493.66;;;14.57;68.76
22649;BME280;11491;41.942;24.220;2022-11-20T06:35:03;89470.97;;;14.55;68.58
22649;BME280;11491;41.942;24.220;2022-11-20T06:37:30;89469.84;;;14.56;68.67
22649;BME280;11491;41.942;24.220;2022-11-20T06:39:57;89478.31;;;14.61;68.89
22649;BME280;11491;41.942;24.220;2022-11-20T06:42:25;89477.84;;;14.49;68.40
22649;BME280;11491;41.942;24.220;2022-11-20T06:44:52;89475.22;;;14.56;68.34
22649;BME280;11491;41.942;24.220;2022-11-20T06:47:18;89470.91;;;14.48;68.04
22649;BME280;11491;41.942;24.220;2022-11-20T06:49:45;89463.25;;;14.50;68.37
22649;BME280;11491;41.942;24.220;2022-11-20T06:52:12;89468.28;;;14.55;68.72
22649;BME280;11491;41.942;24.220;2022-11-20T06:54:38;89472.19;;;14.61;68.08
22649;BME280;11491;41.942;24.220;2022-11-20T06:57:05;89458.31;;;14.55;67.91
22649;BME280;11491;41.942;24.220;2022-11-20T06:59:33;89479.75;;;14.44;68.45
22649;BME280;11491;41.942;24.220;2022-11-20T07:02:00;89468.91;;;14.27;68.83
22649;BME280;11491;41.942;24.220;2022-11-20T07:04:27;89475.03;;;14.24;69.50
22649;BME280;11491;41.942;24.220;2022-11-20T07:06:54;89456.97;;;14.24;70.23
22649;BME280;11491;41.942;24.220;2022-11-20T07:09:21;89475.88;;;14.38;69.46
22649;BME280;11491;41.942;24.220;2022-11-20T07:11:47;89465.94;;;14.46;68.98
22649;BME280;11491;41.942;24.220;2022-11-20T07:14:14;89465.94;;;14.50;69.48
22649;BME280;11491;41.942;24.220;2022-11-20T07:16:42;89463.66;;;14.52;69.05
22649;BME280;11491;41.942;24.220;2022-11-20T07:19:09;89456.03;;;14.61;68.87
22649;BME280;11491;41.942;24.220;2022-11-20T07:21:36;89459.09;;;14.63;68.73
22649;BME280;11491;41.942;24.220;2022-11-20T07:24:03;89465.28;;;14.67;68.31
22649;BME280;11491;41.942;24.220;2022-11-20T07:26:29;89453.75;;;14.67;68.35
22649;BME280;11491;41.942;24.220;2022-11-20T07:28:56;89455.31;;;14.71;68.57
22649;BME280;11491;41.942;24.220;2022-11-20T07:31:23;89455.28;;;14.64;68.16
22649;BME280;11491;41.942;24.220;2022-11-20T07:33:51;89448.34;;;14.59;68.12
22649;BME280;11491;41.942;24.220;2022-11-20T07:36:18;89429.88;;;14.54;68.54
22649;BME280;11491;41.942;24.220;2022-11-20T07:38:44;89425.97;;;14.48;68.85
22649;BME280;11491;41.942;24.220;2022-11-20T07:41:11;89443.75;;;14.67;68.71
22649;BME280;11491;41.942;24.220;2022-11-20T07:43:38;89434.19;;;14.80;68.11
22649;BME280;11491;41.942;24.220;2022-11-20T07:46:05;89429.22;;;14.90;67.51
22649;BME280;11491;41.942;24.220;2022-11-20T07:48:32;89420.00;;;14.98;67.24
22649;BME280;11491;41.942;24.220;2022-11-20T07:51:01;89416.22;;;15.27;66.29
22649;BME280;11491;41.942;24.220;2022-11-20T07:53:27;89434.31;;;15.52;66.29
22649;BME280;11491;41.942;24.220;2022-11-20T07:55:54;89440.88;;;15.65;65.42
22649;BME280;11491;41.942;24.220;2022-11-20T07:58:21;89447.06;;;15.91;64.17
22649;BME280;11491;41.942;24.220;2022-11-20T08:00:48;89443.97;;;16.10;63.11
22649;BME280;11491;41.942;24.220;2022-11-20T08:03:15;89422.41;;;15.89;63.27
22649;BME280;11491;41.942;24.220;2022-11-20T08:05:42;89436.25;;;16.05;63.32
22649;BME280;11491;41.942;24.220;2022-11-20T08:08:10;89420.00;;;16.41;61.66
22649;BME280;11491;41.942;24.220;2022-11-20T08:10:37;89438.09;;;16.48;62.01
22649;BME280;11491;41.942;24.220;2022-11-20T08:13:03;89424.50;;;16.87;61.08
22649;BME280;11491;41.942;24.220;2022-11-20T08:15:50;89413.44;;;17.30;58.92
22649;BME280;11491;41.942;24.220;2022-11-20T08:18:17;89432.53;;;17.61;57.02
22649;BME280;11491;41.942;24.220;2022-11-20T08:20:44;89448.84;;;17.50;57.33
22649;BME280;11491;41.942;24.220;2022-11-20T08:23:12;89436.09;;;18.03;56.58
22649;BME280;11491;41.942;24.220;2022-11-20T08:25:39;89415.03;;;18.28;55.95
22649;BME280;11491;41.942;24.220;2022-11-20T08:28:08;89414.72;;;18.57;54.41
22649;BME280;11491;41.942;24.220;2022-11-20T08:30:36;89412.69;;;18.68;53.71
22649;BME280;11491;41.942;24.220;2022-11-20T08:33:04;89412.72;;;18.27;55.46
22649;BME280;11491;41.942;24.220;2022-11-20T08:35:36;89392.03;;;18.06;55.51
22649;BME280;11491;41.942;24.220;2022-11-20T08:38:03;89406.56;;;18.23;54.96
22649;BME280;11491;41.942;24.220;2022-11-20T08:40:31;89420.88;;;18.61;53.69
22649;BME280;11491;41.942;24.220;2022-11-20T08:42:58;89417.66;;;17.91;55.69
22649;BME280;11491;41.942;24.220;2022-11-20T08:45:26;89435.06;;;18.35;54.25
22649;BME280;11491;41.942;24.220;2022-11-20T08:47:52;89397.53;;;18.37;54.08
22649;BME280;11491;41.942;24.220;2022-11-20T08:50:19;89415.00;;;18.66;53.31
22649;BME280;11491;41.942;24.220;2022-11-20T08:52:46;89425.50;;;17.81;55.53
22649;BME280;11491;41.942;24.220;2022-11-20T08:55:13;89418.91;;;17.23;57.83
22649;BME280;11491;41.942;24.220;2022-11-20T08:57:41;89409.28;;;17.81;56.32
22649;BME280;11491;41.942;24.220;2022-11-20T09:00:10;89396.78;;;17.95;54.75
22649;BME280;11491;41.942;24.220;2022-11-20T09:02:37;89409.28;;;17.81;56.64
22649;BME280;11491;41.942;24.220;2022-11-20T09:05:05;89396.44;;;18.68;53.49
22649;BME280;11491;41.942;24.220;2022-11-20T09:07:31;89388.38;;;17.78;55.60
22649;BME280;11491;41.942;24.220;2022-11-20T09:09:58;89403.28;;;18.42;54.12
22649;BME280;11491;41.942;24.220;2022-11-20T09:12:25;89373.59;;;19.04;52.10
22649;BME280;11491;41.942;24.220;2022-11-20T09:14:53;89377.03;;;18.73;53.16
22649;BME280;11491;41.942;24.220;2022-11-20T09:17:20;89378.72;;;17.84;55.67
22649;BME280;11491;41.942;24.220;2022-11-20T09:19:46;89379.09;;;18.62;53.36
22649;BME280;11491;41.942;24.220;2022-11-20T09:22:13;89368.00;;;18.15;53.79
22649;BME280;11491;41.942;24.220;2022-11-20T09:24:40;89358.69;;;18.20;54.28
22649;BME280;11491;41.942;24.220;2022-11-20T09:27:08;89362.66;;;18.08;53.65
22649;BME280;11491;41.942;24.220;2022-11-20T09:29:35;89378.66;;;17.39;56.11
22649;BME280;11491;41.942;24.220;2022-11-20T09:32:03;89381.28;;;17.50;55.85
22649;BME280;11491;41.942;24.220;2022-11-20T09:34:30;89360.78;;;17.00;56.74
22649;BME280;11491;41.942;24.220;2022-11-20T09:36:57;89359.28;;;17.52;56.53
22649;BME280;11491;41.942;24.220;2022-11-20T09:39:23;89379.53;;;17.29;56.80
22649;BME280;11491;41.942;24.220;2022-11-20T09:42:02;89371.63;;;18.36;54.14
22649;BME280;11491;41.942;24.220;2022-11-20T09:44:40;89364.03;;;18.23;53.45
22649;BME280;11491;41.942;24.220;2022-11-20T09:47:14;89357.00;;;17.47;55.74
22649;BME280;11491;41.942;24.220;2022-11-20T09:49:58;89367.63;;;17.72;55.17
22649;BME280;11491;41.942;24.220;2022-11-20T09:52:33;89373.47;;;17.63;55.89
22649;BME280;11491;41.942;24.220;2022-11-20T09:55:09;89369.94;;;17.66;54.63
22649;BME280;11491;41.942;24.220;2022-11-20T09:57:39;89369.34;;;18.34;53.53
22649;BME280;11491;41.942;24.220;2022-11-20T10:00:11;89370.34;;;18.51;53.10
22649;BME280;11491;41.942;24.220;2022-11-20T10:02:44;89382.97;;;18.61;52.62
22649;BME280;11491;41.942;24.220;2022-11-20T10:05:19;89356.69;;;18.58;51.41
22649;BME280;11491;41.942;24.220;2022-11-20T10:07:52;89346.78;;;18.14;52.71
22649;BME280;11491;41.942;24.220;2022-11-20T10:10:29;89345.78;;;18.65;52.79
22649;BME280;11491;41.942;24.220;2022-11-20T10:13:11;89349.13;;;19.62;49.10
22649;BME280;11491;41.942;24.220;2022-11-20T10:15:48;89343.13;;;20.21;47.49
22649;BME280;11491;41.942;24.220;2022-11-20T10:18:32;89338.38;;;19.04;49.93
22649;BME280;11491;41.942;24.220;2022-11-20T10:21:09;89348.22;;;19.72;49.08
22649;BME280;11491;41.942;24.220;2022-11-20T10:24:00;89332.69;;;20.63;47.09
22649;BME280;11491;41.942;24.220;2022-11-20T10:26:35;89350.00;;;20.89;46.41
22649;BME280;11491;41.942;24.220;2022-11-20T10:29:11;89347.72;;;21.77;43.98
22649;BME280;11491;41.942;24.220;2022-11-20T10:31:40;89357.75;;;22.29;44.88
22649;BME280;11491;41.942;24.220;2022-11-20T10:34:17;89353.94;;;23.14;42.96
22649;BME280;11491;41.942;24.220;2022-11-20T10:36:47;89367.81;;;22.61;41.97
22649;BME280;11491;41.942;24.220;2022-11-20T10:39:20;89340.19;;;21.32;43.83
22649;BME280;11491;41.942;24.220;2022-11-20T10:41:50;89354.81;;;20.81;46.49
22649;BME280;11491;41.942;24.220;2022-11-20T10:44:20;89343.56;;;21.19;47.10
22649;BME280;11491;41.942;24.220;2022-11-20T10:47:05;89350.59;;;22.02;44.37
22649;BME280;11491;41.942;24.220;2022-11-20T10:49:34;89355.88;;;22.09;43.71
22649;BME280;11491;41.942;24.220;2022-11-20T10:52:09;89351.53;;;22.28;42.63
22649;BME280;11491;41.942;24.220;2022-11-20T10:54:43;89348.09;;;22.41;42.99
22649;BME280;11491;41.942;24.220;2022-11-20T10:57:20;89359.44;;;21.73;42.68
22649;BME280;11491;41.942;24.220;2022-11-20T11:00:01;89324.44;;;20.67;45.44
22649;BME280;11491;41.942;24.220;2022-11-20T11:02:35;89328.69;;;19.30;48.49
22649;BME280;11491;41.942;24.220;2022-11-20T11:05:18;89351.63;;;18.29;51.75
22649;BME280;11491;41.942;24.220;2022-11-20T11:07:50;89356.28;;;18.63;51.80
22649;BME280;11491;41.942;24.220;2022-11-20T11:10:20;89344.25;;;18.64;52.85
22649;BME280;11491;41.942;24.220;2022-11-20T11:12:49;89345.66;;;18.11;53.38
22649;BME280;11491;41.942;24.220;2022-11-20T11:15:25;89348.47;;;18.35;52.87
22649;BME280;11491;41.942;24.220;2022-11-20T11:17:53;89334.53;;;18.02;53.96
22649;BME280;11491;41.942;24.220;2022-11-20T11:20:22;89337.19;;;18.05;53.15
22649;BME280;11491;41.942;24.220;2022-11-20T11:22:50;89340.81;;;17.43;54.53
22649;BME280;11491;41.942;24.220;2022-11-20T11:25:29;89340.22;;;17.17;56.51
22649;BME280;11491;41.942;24.220;2022-11-20T11:28:00;89334.75;;;17.73;55.35
22649;BME280;11491;41.942;24.220;2022-11-20T11:30:30;89329.28;;;18.22;53.54
22649;BME280;11491;41.942;24.220;2022-11-20T11:33:04;89319.63;;;18.55;51.56
22649;BME280;11491;41.942;24.220;2022-11-20T11:35:33;89311.63;;;18.79;51.62
22649;BME280;11491;41.942;24.220;2022-11-20T11:38:05;89330.97;;;18.77;50.50
22649;BME280;11491;41.942;24.220;2022-11-20T11:40:35;89332.38;;;18.20;51.95
22649;BME280;11491;41.942;24.220;2022-11-20T11:43:05;89321.56;;;18.20;53.17
22649;BME280;11491;41.942;24.220;2022-11-20T11:45:54;89315.22;;;18.68;51.36
22649;BME280;11491;41.942;24.220;2022-11-20T11:48:20;89309.44;;;18.66;51.03
22649;BME280;11491;41.942;24.220;2022-11-20T11:50:50;89305.31;;;19.16;51.50
22649;BME280;11491;41.942;24.220;2022-11-20T11:53:19;89297.84;;;19.47;50.55
22649;BME280;11491;41.942;24.220;2022-11-20T11:55:49;89299.16;;;19.39;49.31
22649;BME280;11491;41.942;24.220;2022-11-20T11:58:30;89314.56;;;19.42;50.20
22649;BME280;11491;41.942;24.220;2022-11-20T12:01:03;89296.97;;;18.72;51.57
22649;BME280;11491;41.942;24.220;2022-11-20T12:03:35;89309.13;;;18.91;52.16
22649;BME280;11491;41.942;24.220;2022-11-20T12:06:08;89307.97;;;18.58;51.89
22649;BME280;11491;41.942;24.220;2022-11-20T12:08:43;89301.28;;;18.36;54.37
22649;BME280;11491;41.942;24.220;2022-11-20T12:11:13;89319.03;;;17.61;55.34
22649;BME280;11491;41.942;24.220;2022-11-20T12:13:50;89323.03;;;17.46;57.24
22649;BME280;11491;41.942;24.220;2022-11-20T12:16:20;89309.28;;;17.29;57.53
22649;BME280;11491;41.942;24.220;2022-11-20T12:18:49;89309.63;;;16.72;60.49
22649;BME280;11491;41.942;24.220;2022-11-20T12:21:30;89299.25;;;15.71;64.58
22649;BME280;11491;41.942;24.220;2022-11-20T12:24:32;89308.50;;;15.70;66.76
22649;BME280;11491;41.942;24.220;2022-11-20T12:27:10;89312.31;;;15.77;67.07
22649;BME280;11491;41.942;24.220;2022-11-20T12:29:44;89313.47;;;15.65;68.50
22649;BME280;11491;41.942;24.220;2022-11-20T12:32:34;89327.75;;;15.73;68.15
22649;BME280;11491;41.942;24.220;2022-11-20T12:35:13;89340.06;;;15.74;68.58
22649;BME280;11491;41.942;24.220;2022-11-20T12:37:48;89331.22;;;15.19;71.38
22649;BME280;11491;41.942;24.220;2022-11-20T12:40:28;89337.38;;;15.09;71.28
22649;BME280;11491;41.942;24.220;2022-11-20T12:43:06;89326.22;;;15.07;71.07
22649;BME280;11491;41.942;24.220;2022-11-20T12:46:07;89327.69;;;14.61;71.60
22649;BME280;11491;41.942;24.220;2022-11-20T12:48:42;89343.75;;;14.43;72.87
22649;BME280;11491;41.942;24.220;2022-11-20T12:51:23;89352.91;;;14.21;73.87
22649;BME280;11491;41.942;24.220;2022-11-20T12:54:03;89362.81;;;14.13;76.42
22649;BME280;11491;41.942;24.220;2022-11-20T12:56:41;89378.88;;;13.95;77.73
22649;BME280;11491;41.942;24.220;2022-11-20T12:59:23;89381.91;;;13.90;78.03
22649;BME280;11491;41.942;24.220;2022-11-20T13:01:58;89380.38;;;13.89;78.24